Terminal Aerodrome Forecast
Issued by NWS

Current Version | Previous Version | Graphics & Text | Print | Product List | Glossary On
Versions: 1 2 3 4 5 6 7 8 9 10 11 12 13 14 15 16 17 18 19 20 21 22 23 24 25 26 27 28
000
FTUS41 KILN 271612 AAC
TAFLCK
TAF AMD
KLCK 271612Z 2716/2812 06008KT P6SM OVC015
     FM271800 05010KT P6SM OVC025
     FM271900 07010KT P6SM OVC035
     FM272200 06005KT P6SM BKN040
     FM280800 07006KT 5SM -SHRA OVC025=

USA.gov is the U.S. government's official web portal to all federal, state and local government web resources and services.